sensor_id;sensor_type;location;lat;lon;timestamp;P1;durP1;ratioP1;P2;durP2;ratioP2
61590;SDS011;57639;52.410;-1.966;2023-04-24T00:02:00;3.85;;;2.95;;
61590;SDS011;57639;52.410;-1.966;2023-04-24T00:05:23;4.00;;;3.25;;
61590;SDS011;57639;52.410;-1.966;2023-04-24T00:08:46;4.80;;;3.25;;
61590;SDS011;57639;52.410;-1.966;2023-04-24T00:12:11;3.78;;;3.08;;
61590;SDS011;57639;52.410;-1.966;2023-04-24T00:15:34;3.63;;;3.05;;
61590;SDS011;57639;52.410;-1.966;2023-04-24T00:18:57;4.72;;;3.20;;
61590;SDS011;57639;52.410;-1.966;2023-04-24T00:22:19;3.80;;;3.05;;
61590;SDS011;57639;52.410;-1.966;2023-04-24T00:25:42;4.68;;;3.03;;
61590;SDS011;57639;52.410;-1.966;2023-04-24T00:29:08;4.50;;;3.47;;
61590;SDS011;57639;52.410;-1.966;2023-04-24T00:32:30;4.45;;;3.10;;
61590;SDS011;57639;52.410;-1.966;2023-04-24T00:35:53;3.65;;;3.10;;
61590;SDS011;57639;52.410;-1.966;2023-04-24T00:39:16;3.40;;;2.85;;
61590;SDS011;57639;52.410;-1.966;2023-04-24T00:42:39;3.20;;;2.90;;
61590;SDS011;57639;52.410;-1.966;2023-04-24T00:46:05;3.45;;;2.95;;
61590;SDS011;57639;52.410;-1.966;2023-04-24T00:49:28;3.60;;;2.72;;
61590;SDS011;57639;52.410;-1.966;2023-04-24T00:52:50;3.00;;;2.58;;
61590;SDS011;57639;52.410;-1.966;2023-04-24T00:56:09;3.60;;;3.00;;
61590;SDS011;57639;52.410;-1.966;2023-04-24T00:59:32;4.43;;;2.90;;
61590;SDS011;57639;52.410;-1.966;2023-04-24T01:02:58;4.00;;;3.05;;
61590;SDS011;57639;52.410;-1.966;2023-04-24T01:06:23;3.20;;;2.90;;
61590;SDS011;57639;52.410;-1.966;2023-04-24T01:09:49;3.70;;;3.15;;
61590;SDS011;57639;52.410;-1.966;2023-04-24T01:13:13;4.75;;;3.30;;
61590;SDS011;57639;52.410;-1.966;2023-04-24T01:16:36;3.38;;;2.97;;
61590;SDS011;57639;52.410;-1.966;2023-04-24T01:20:03;4.20;;;3.00;;
61590;SDS011;57639;52.410;-1.966;2023-04-24T01:23:30;3.78;;;3.20;;
61590;SDS011;57639;52.410;-1.966;2023-04-24T01:26:52;4.20;;;3.40;;
61590;SDS011;57639;52.410;-1.966;2023-04-24T01:30:15;3.35;;;2.92;;
61590;SDS011;57639;52.410;-1.966;2023-04-24T01:33:40;3.30;;;2.97;;
61590;SDS011;57639;52.410;-1.966;2023-04-24T01:37:03;4.32;;;3.17;;
61590;SDS011;57639;52.410;-1.966;2023-04-24T01:40:29;3.78;;;2.90;;
61590;SDS011;57639;52.410;-1.966;2023-04-24T01:43:53;4.65;;;2.80;;
61590;SDS011;57639;52.410;-1.966;2023-04-24T01:47:16;3.47;;;3.15;;
61590;SDS011;57639;52.410;-1.966;2023-04-24T01:50:39;3.53;;;2.95;;
61590;SDS011;57639;52.410;-1.966;2023-04-24T01:54:02;3.70;;;3.00;;
61590;SDS011;57639;52.410;-1.966;2023-04-24T01:57:28;3.22;;;2.85;;
61590;SDS011;57639;52.410;-1.966;2023-04-24T02:00:47;3.25;;;2.95;;
61590;SDS011;57639;52.410;-1.966;2023-04-24T02:04:10;3.90;;;2.95;;
61590;SDS011;57639;52.410;-1.966;2023-04-24T02:07:34;4.28;;;3.00;;
61590;SDS011;57639;52.410;-1.966;2023-04-24T02:10:56;3.78;;;2.97;;
61590;SDS011;57639;52.410;-1.966;2023-04-24T02:14:23;3.75;;;3.10;;
61590;SDS011;57639;52.410;-1.966;2023-04-24T02:17:46;3.65;;;2.83;;
61590;SDS011;57639;52.410;-1.966;2023-04-24T02:21:09;3.97;;;3.03;;
61590;SDS011;57639;52.410;-1.966;2023-04-24T02:24:31;3.92;;;2.95;;
61590;SDS011;57639;52.410;-1.966;2023-04-24T02:27:54;3.30;;;2.78;;
61590;SDS011;57639;52.410;-1.966;2023-04-24T02:31:20;3.50;;;3.00;;
61590;SDS011;57639;52.410;-1.966;2023-04-24T02:34:42;3.50;;;2.75;;
61590;SDS011;57639;52.410;-1.966;2023-04-24T02:38:05;3.50;;;2.90;;
61590;SDS011;57639;52.410;-1.966;2023-04-24T02:41:28;4.18;;;2.58;;
61590;SDS011;57639;52.410;-1.966;2023-04-24T02:44:51;3.90;;;3.08;;
61590;SDS011;57639;52.410;-1.966;2023-04-24T02:48:16;4.68;;;2.90;;
61590;SDS011;57639;52.410;-1.966;2023-04-24T02:51:39;3.63;;;2.75;;
61590;SDS011;57639;52.410;-1.966;2023-04-24T02:55:02;3.97;;;2.70;;
61590;SDS011;57639;52.410;-1.966;2023-04-24T02:58:26;3.35;;;2.72;;
61590;SDS011;57639;52.410;-1.966;2023-04-24T03:01:49;3.83;;;2.80;;
61590;SDS011;57639;52.410;-1.966;2023-04-24T03:05:11;4.57;;;3.17;;
61590;SDS011;57639;52.410;-1.966;2023-04-24T03:08:34;3.47;;;2.60;;
61590;SDS011;57639;52.410;-1.966;2023-04-24T03:11:57;4.75;;;2.78;;
61590;SDS011;57639;52.410;-1.966;2023-04-24T03:15:19;3.35;;;2.58;;
61590;SDS011;57639;52.410;-1.966;2023-04-24T03:18:42;3.03;;;2.47;;
61590;SDS011;57639;52.410;-1.966;2023-04-24T03:22:08;3.83;;;2.67;;
61590;SDS011;57639;52.410;-1.966;2023-04-24T03:25:31;3.15;;;2.53;;
61590;SDS011;57639;52.410;-1.966;2023-04-24T03:28:53;3.83;;;2.80;;
61590;SDS011;57639;52.410;-1.966;2023-04-24T03:32:16;4.10;;;2.65;;
61590;SDS011;57639;52.410;-1.966;2023-04-24T03:35:39;4.45;;;2.83;;
61590;SDS011;57639;52.410;-1.966;2023-04-24T03:39:05;3.30;;;2.53;;
61590;SDS011;57639;52.410;-1.966;2023-04-24T03:42:28;4.53;;;2.60;;
61590;SDS011;57639;52.410;-1.966;2023-04-24T03:45:50;2.70;;;2.28;;
61590;SDS011;57639;52.410;-1.966;2023-04-24T03:49:13;3.10;;;2.60;;
61590;SDS011;57639;52.410;-1.966;2023-04-24T03:52:35;3.15;;;2.55;;
61590;SDS011;57639;52.410;-1.966;2023-04-24T03:56:01;4.03;;;2.67;;
61590;SDS011;57639;52.410;-1.966;2023-04-24T03:59:23;3.80;;;2.50;;
61590;SDS011;57639;52.410;-1.966;2023-04-24T04:02:46;3.60;;;2.50;;
61590;SDS011;57639;52.410;-1.966;2023-04-24T04:06:09;3.78;;;2.50;;
61590;SDS011;57639;52.410;-1.966;2023-04-24T04:09:28;3.30;;;2.22;;
61590;SDS011;57639;52.410;-1.966;2023-04-24T04:12:54;3.88;;;2.60;;
61590;SDS011;57639;52.410;-1.966;2023-04-24T04:16:17;3.15;;;2.45;;
61590;SDS011;57639;52.410;-1.966;2023-04-24T04:19:40;3.20;;;2.10;;
61590;SDS011;57639;52.410;-1.966;2023-04-24T04:23:02;3.10;;;2.30;;
61590;SDS011;57639;52.410;-1.966;2023-04-24T04:26:25;2.55;;;2.05;;
61590;SDS011;57639;52.410;-1.966;2023-04-24T04:29:53;2.70;;;2.10;;
61590;SDS011;57639;52.410;-1.966;2023-04-24T04:33:16;2.45;;;1.80;;
61590;SDS011;57639;52.410;-1.966;2023-04-24T04:36:39;3.95;;;2.40;;
61590;SDS011;57639;52.410;-1.966;2023-04-24T04:40:03;2.92;;;1.98;;
61590;SDS011;57639;52.410;-1.966;2023-04-24T04:43:29;3.25;;;2.20;;
61590;SDS011;57639;52.410;-1.966;2023-04-24T04:46:56;2.80;;;2.00;;
61590;SDS011;57639;52.410;-1.966;2023-04-24T04:50:19;2.60;;;1.90;;
61590;SDS011;57639;52.410;-1.966;2023-04-24T04:53:42;3.08;;;2.15;;
61590;SDS011;57639;52.410;-1.966;2023-04-24T04:57:04;2.40;;;1.90;;
61590;SDS011;57639;52.410;-1.966;2023-04-24T05:00:28;2.35;;;1.70;;
61590;SDS011;57639;52.410;-1.966;2023-04-24T05:03:56;2.13;;;1.70;;
61590;SDS011;57639;52.410;-1.966;2023-04-24T05:07:19;3.78;;;2.00;;
61590;SDS011;57639;52.410;-1.966;2023-04-24T05:10:42;2.58;;;1.70;;
61590;SDS011;57639;52.410;-1.966;2023-04-24T05:14:01;2.70;;;1.83;;
61590;SDS011;57639;52.410;-1.966;2023-04-24T05:17:24;2.75;;;1.60;;
61590;SDS011;57639;52.410;-1.966;2023-04-24T05:20:49;2.58;;;1.83;;
61590;SDS011;57639;52.410;-1.966;2023-04-24T05:24:12;2.92;;;1.83;;
61590;SDS011;57639;52.410;-1.966;2023-04-24T05:27:34;2.95;;;1.80;;
61590;SDS011;57639;52.410;-1.966;2023-04-24T05:30:57;2.20;;;1.42;;
61590;SDS011;57639;52.410;-1.966;2023-04-24T05:34:22;3.63;;;1.67;;
61590;SDS011;57639;52.410;-1.966;2023-04-24T05:37:47;2.10;;;1.30;;
61590;SDS011;57639;52.410;-1.966;2023-04-24T05:41:10;2.10;;;1.27;;
61590;SDS011;57639;52.410;-1.966;2023-04-24T05:44:33;2.17;;;1.40;;
61590;SDS011;57639;52.410;-1.966;2023-04-24T05:47:55;2.30;;;1.48;;
61590;SDS011;57639;52.410;-1.966;2023-04-24T05:51:18;2.00;;;1.40;;
61590;SDS011;57639;52.410;-1.966;2023-04-24T05:54:43;2.60;;;1.45;;
61590;SDS011;57639;52.410;-1.966;2023-04-24T05:58:06;3.67;;;1.70;;
61590;SDS011;57639;52.410;-1.966;2023-04-24T06:01:29;2.15;;;1.20;;
61590;SDS011;57639;52.410;-1.966;2023-04-24T06:04:51;2.22;;;1.50;;
61590;SDS011;57639;52.410;-1.966;2023-04-24T06:08:14;2.13;;;1.27;;
61590;SDS011;57639;52.410;-1.966;2023-04-24T06:11:39;4.45;;;1.40;;
61590;SDS011;57639;52.410;-1.966;2023-04-24T06:15:02;2.25;;;1.58;;
61590;SDS011;57639;52.410;-1.966;2023-04-24T06:18:22;3.83;;;1.30;;
61590;SDS011;57639;52.410;-1.966;2023-04-24T06:21:45;3.50;;;1.40;;
61590;SDS011;57639;52.410;-1.966;2023-04-24T06:25:08;8.23;;;1.60;;
61590;SDS011;57639;52.410;-1.966;2023-04-24T06:28:33;1.55;;;1.05;;
61590;SDS011;57639;52.410;-1.966;2023-04-24T06:31:56;2.00;;;1.17;;
61590;SDS011;57639;52.410;-1.966;2023-04-24T06:35:19;2.97;;;1.10;;
61590;SDS011;57639;52.410;-1.966;2023-04-24T06:38:42;1.80;;;1.10;;
61590;SDS011;57639;52.410;-1.966;2023-04-24T06:42:04;1.85;;;1.00;;
61590;SDS011;57639;52.410;-1.966;2023-04-24T06:45:31;1.70;;;1.10;;
61590;SDS011;57639;52.410;-1.966;2023-04-24T06:48:53;2.40;;;0.95;;
61590;SDS011;57639;52.410;-1.966;2023-04-24T06:52:17;3.92;;;1.10;;
61590;SDS011;57639;52.410;-1.966;2023-04-24T06:55:39;2.13;;;1.02;;
61590;SDS011;57639;52.410;-1.966;2023-04-24T06:59:03;1.48;;;0.77;;
61590;SDS011;57639;52.410;-1.966;2023-04-24T07:02:29;1.65;;;0.90;;
61590;SDS011;57639;52.410;-1.966;2023-04-24T07:05:52;1.58;;;0.80;;
61590;SDS011;57639;52.410;-1.966;2023-04-24T07:09:14;7.53;;;1.00;;
61590;SDS011;57639;52.410;-1.966;2023-04-24T07:12:37;2.15;;;0.88;;
61590;SDS011;57639;52.410;-1.966;2023-04-24T07:16:00;2.95;;;1.15;;
61590;SDS011;57639;52.410;-1.966;2023-04-24T07:19:25;1.65;;;1.00;;
61590;SDS011;57639;52.410;-1.966;2023-04-24T07:22:48;3.53;;;1.10;;
61590;SDS011;57639;52.410;-1.966;2023-04-24T07:26:09;1.75;;;1.00;;
61590;SDS011;57639;52.410;-1.966;2023-04-24T07:29:33;2.75;;;0.85;;
61590;SDS011;57639;52.410;-1.966;2023-04-24T07:32:55;3.08;;;1.00;;
61590;SDS011;57639;52.410;-1.966;2023-04-24T07:36:21;1.90;;;1.00;;
61590;SDS011;57639;52.410;-1.966;2023-04-24T07:39:45;1.92;;;0.80;;
61590;SDS011;57639;52.410;-1.966;2023-04-24T07:43:07;1.63;;;0.90;;
61590;SDS011;57639;52.410;-1.966;2023-04-24T07:46:30;4.50;;;1.00;;
61590;SDS011;57639;52.410;-1.966;2023-04-24T07:49:53;1.92;;;1.02;;
61590;SDS011;57639;52.410;-1.966;2023-04-24T07:53:18;3.20;;;0.93;;
61590;SDS011;57639;52.410;-1.966;2023-04-24T07:56:41;2.33;;;0.90;;
61590;SDS011;57639;52.410;-1.966;2023-04-24T08:00:05;1.63;;;0.70;;
61590;SDS011;57639;52.410;-1.966;2023-04-24T08:11:57;2.72;;;0.90;;
61590;SDS011;57639;52.410;-1.966;2023-04-24T08:15:21;2.30;;;0.80;;
61590;SDS011;57639;52.410;-1.966;2023-04-24T08:18:44;3.00;;;1.05;;
61590;SDS011;57639;52.410;-1.966;2023-04-24T08:22:06;2.35;;;0.88;;
61590;SDS011;57639;52.410;-1.966;2023-04-24T08:25:29;1.70;;;0.68;;
61590;SDS011;57639;52.410;-1.966;2023-04-24T08:28:53;2.28;;;1.00;;
61590;SDS011;57639;52.410;-1.966;2023-04-24T08:32:16;2.17;;;0.82;;
61590;SDS011;57639;52.410;-1.966;2023-04-24T08:35:39;2.72;;;0.82;;
61590;SDS011;57639;52.410;-1.966;2023-04-24T08:39:02;2.55;;;0.73;;
61590;SDS011;57639;52.410;-1.966;2023-04-24T08:42:25;1.55;;;0.80;;
61590;SDS011;57639;52.410;-1.966;2023-04-24T08:45:55;1.77;;;0.63;;
61590;SDS011;57639;52.410;-1.966;2023-04-24T08:49:18;1.77;;;0.80;;
61590;SDS011;57639;52.410;-1.966;2023-04-24T08:52:41;1.75;;;0.80;;
61590;SDS011;57639;52.410;-1.966;2023-04-24T08:56:04;1.40;;;0.70;;
61590;SDS011;57639;52.410;-1.966;2023-04-24T08:59:28;2.03;;;0.70;;
61590;SDS011;57639;52.410;-1.966;2023-04-24T09:07:12;1.35;;;0.85;;
61590;SDS011;57639;52.410;-1.966;2023-04-24T09:10:55;1.67;;;0.90;;
61590;SDS011;57639;52.410;-1.966;2023-04-24T09:14:22;1.77;;;0.73;;
61590;SDS011;57639;52.410;-1.966;2023-04-24T09:17:47;2.10;;;0.98;;
61590;SDS011;57639;52.410;-1.966;2023-04-24T09:21:10;1.80;;;0.82;;
61590;SDS011;57639;52.410;-1.966;2023-04-24T09:24:36;2.17;;;1.00;;
61590;SDS011;57639;52.410;-1.966;2023-04-24T09:28:00;2.17;;;0.90;;
61590;SDS011;57639;52.410;-1.966;2023-04-24T09:31:24;2.53;;;0.77;;
61590;SDS011;57639;52.410;-1.966;2023-04-24T09:34:46;2.65;;;0.90;;
61590;SDS011;57639;52.410;-1.966;2023-04-24T09:38:10;1.35;;;0.80;;
61590;SDS011;57639;52.410;-1.966;2023-04-24T09:41:35;2.03;;;1.05;;
61590;SDS011;57639;52.410;-1.966;2023-04-24T09:45:08;2.70;;;1.08;;
61590;SDS011;57639;52.410;-1.966;2023-04-24T09:48:32;1.67;;;0.80;;
61590;SDS011;57639;52.410;-1.966;2023-04-24T09:52:02;3.08;;;1.17;;
61590;SDS011;57639;52.410;-1.966;2023-04-24T09:55:26;2.13;;;0.98;;
61590;SDS011;57639;52.410;-1.966;2023-04-24T09:58:52;1.80;;;0.93;;
61590;SDS011;57639;52.410;-1.966;2023-04-24T10:02:16;2.97;;;1.05;;
61590;SDS011;57639;52.410;-1.966;2023-04-24T10:05:40;1.63;;;0.80;;
61590;SDS011;57639;52.410;-1.966;2023-04-24T10:09:02;2.30;;;1.00;;
61590;SDS011;57639;52.410;-1.966;2023-04-24T10:12:26;2.20;;;0.90;;
61590;SDS011;57639;52.410;-1.966;2023-04-24T10:15:52;2.80;;;1.35;;
61590;SDS011;57639;52.410;-1.966;2023-04-24T10:19:15;1.70;;;0.90;;
61590;SDS011;57639;52.410;-1.966;2023-04-24T10:22:40;2.70;;;0.80;;
61590;SDS011;57639;52.410;-1.966;2023-04-24T10:26:08;2.05;;;1.00;;
61590;SDS011;57639;52.410;-1.966;2023-04-24T10:29:36;1.50;;;0.80;;
61590;SDS011;57639;52.410;-1.966;2023-04-24T10:33:02;2.42;;;1.00;;
61590;SDS011;57639;52.410;-1.966;2023-04-24T10:36:26;1.77;;;1.08;;
61590;SDS011;57639;52.410;-1.966;2023-04-24T10:39:48;2.60;;;0.98;;
61590;SDS011;57639;52.410;-1.966;2023-04-24T10:43:13;1.48;;;0.82;;
61590;SDS011;57639;52.410;-1.966;2023-04-24T10:46:39;2.08;;;1.00;;
61590;SDS011;57639;52.410;-1.966;2023-04-24T10:50:10;1.77;;;0.90;;
61590;SDS011;57639;52.410;-1.966;2023-04-24T10:53:38;2.42;;;1.20;;
61590;SDS011;57639;52.410;-1.966;2023-04-24T11:00:55;3.55;;;1.10;;
61590;SDS011;57639;52.410;-1.966;2023-04-24T11:04:22;2.30;;;1.10;;
61590;SDS011;57639;52.410;-1.966;2023-04-24T11:11:36;2.05;;;0.95;;
61590;SDS011;57639;52.410;-1.966;2023-04-24T11:15:00;2.75;;;0.80;;
61590;SDS011;57639;52.410;-1.966;2023-04-24T11:18:23;2.40;;;0.98;;
61590;SDS011;57639;52.410;-1.966;2023-04-24T11:21:46;2.20;;;0.90;;
61590;SDS011;57639;52.410;-1.966;2023-04-24T11:25:13;1.40;;;0.77;;
61590;SDS011;57639;52.410;-1.966;2023-04-24T11:28:37;1.70;;;0.88;;
61590;SDS011;57639;52.410;-1.966;2023-04-24T11:35:48;1.77;;;0.90;;
61590;SDS011;57639;52.410;-1.966;2023-04-24T11:39:13;2.22;;;1.05;;
61590;SDS011;57639;52.410;-1.966;2023-04-24T11:42:39;2.08;;;0.90;;
61590;SDS011;57639;52.410;-1.966;2023-04-24T11:45:59;2.03;;;1.02;;
61590;SDS011;57639;52.410;-1.966;2023-04-24T11:49:21;1.90;;;0.80;;
61590;SDS011;57639;52.410;-1.966;2023-04-24T11:52:44;3.72;;;0.90;;
61590;SDS011;57639;52.410;-1.966;2023-04-24T11:56:08;1.65;;;0.80;;
61590;SDS011;57639;52.410;-1.966;2023-04-24T11:59:37;2.42;;;0.95;;
61590;SDS011;57639;52.410;-1.966;2023-04-24T12:03:03;2.95;;;1.10;;
61590;SDS011;57639;52.410;-1.966;2023-04-24T12:06:27;2.63;;;0.80;;
61590;SDS011;57639;52.410;-1.966;2023-04-24T12:09:55;2.13;;;0.77;;
61590;SDS011;57639;52.410;-1.966;2023-04-24T12:13:19;1.95;;;0.90;;
61590;SDS011;57639;52.410;-1.966;2023-04-24T12:16:46;1.63;;;0.60;;
61590;SDS011;57639;52.410;-1.966;2023-04-24T12:20:10;1.23;;;0.70;;
61590;SDS011;57639;52.410;-1.966;2023-04-24T12:23:33;2.67;;;0.80;;
61590;SDS011;57639;52.410;-1.966;2023-04-24T12:26:56;2.00;;;0.88;;
61590;SDS011;57639;52.410;-1.966;2023-04-24T12:30:20;2.03;;;0.90;;
61590;SDS011;57639;52.410;-1.966;2023-04-24T12:33:46;2.03;;;0.90;;
61590;SDS011;57639;52.410;-1.966;2023-04-24T12:37:10;1.42;;;0.80;;
61590;SDS011;57639;52.410;-1.966;2023-04-24T12:40:32;1.67;;;0.80;;
61590;SDS011;57639;52.410;-1.966;2023-04-24T12:43:55;2.13;;;0.90;;
61590;SDS011;57639;52.410;-1.966;2023-04-24T12:47:18;3.17;;;1.00;;
61590;SDS011;57639;52.410;-1.966;2023-04-24T12:50:40;1.60;;;1.00;;
61590;SDS011;57639;52.410;-1.966;2023-04-24T12:54:03;1.95;;;0.85;;
61590;SDS011;57639;52.410;-1.966;2023-04-24T12:57:26;1.77;;;0.82;;
61590;SDS011;57639;52.410;-1.966;2023-04-24T13:00:50;3.63;;;1.27;;
61590;SDS011;57639;52.410;-1.966;2023-04-24T13:04:13;1.70;;;0.88;;
61590;SDS011;57639;52.410;-1.966;2023-04-24T13:07:38;3.28;;;1.10;;
61590;SDS011;57639;52.410;-1.966;2023-04-24T13:11:01;2.53;;;0.90;;
61590;SDS011;57639;52.410;-1.966;2023-04-24T13:14:24;4.85;;;1.17;;
61590;SDS011;57639;52.410;-1.966;2023-04-24T13:17:46;3.45;;;0.80;;
61590;SDS011;57639;52.410;-1.966;2023-04-24T13:21:09;3.47;;;0.98;;
61590;SDS011;57639;52.410;-1.966;2023-04-24T13:24:34;3.13;;;0.93;;
61590;SDS011;57639;52.410;-1.966;2023-04-24T13:27:58;4.57;;;1.10;;
61590;SDS011;57639;52.410;-1.966;2023-04-24T13:31:21;3.78;;;1.10;;
61590;SDS011;57639;52.410;-1.966;2023-04-24T13:34:44;3.35;;;1.00;;
61590;SDS011;57639;52.410;-1.966;2023-04-24T13:38:06;2.78;;;1.05;;
61590;SDS011;57639;52.410;-1.966;2023-04-24T13:41:32;2.75;;;1.00;;
61590;SDS011;57639;52.410;-1.966;2023-04-24T13:44:55;3.10;;;0.88;;
61590;SDS011;57639;52.410;-1.966;2023-04-24T13:48:18;2.72;;;0.85;;
61590;SDS011;57639;52.410;-1.966;2023-04-24T13:51:41;2.97;;;1.00;;
61590;SDS011;57639;52.410;-1.966;2023-04-24T13:55:01;1.95;;;0.85;;
61590;SDS011;57639;52.410;-1.966;2023-04-24T13:58:26;2.90;;;1.10;;
61590;SDS011;57639;52.410;-1.966;2023-04-24T14:01:49;3.10;;;1.10;;
61590;SDS011;57639;52.410;-1.966;2023-04-24T14:05:12;2.53;;;0.90;;
61590;SDS011;57639;52.410;-1.966;2023-04-24T14:08:36;1.98;;;1.00;;
61590;SDS011;57639;52.410;-1.966;2023-04-24T14:11:58;2.33;;;0.98;;
61590;SDS011;57639;52.410;-1.966;2023-04-24T14:15:25;2.60;;;1.05;;
61590;SDS011;57639;52.410;-1.966;2023-04-24T14:18:47;2.15;;;1.20;;
61590;SDS011;57639;52.410;-1.966;2023-04-24T14:22:10;5.60;;;1.15;;
61590;SDS011;57639;52.410;-1.966;2023-04-24T14:25:33;2.40;;;1.20;;
61590;SDS011;57639;52.410;-1.966;2023-04-24T14:28:56;2.90;;;1.60;;
61590;SDS011;57639;52.410;-1.966;2023-04-24T14:32:21;2.13;;;1.15;;
61590;SDS011;57639;52.410;-1.966;2023-04-24T14:35:44;3.95;;;1.25;;
61590;SDS011;57639;52.410;-1.966;2023-04-24T14:39:08;3.03;;;1.13;;
61590;SDS011;57639;52.410;-1.966;2023-04-24T14:42:32;3.28;;;1.35;;
61590;SDS011;57639;52.410;-1.966;2023-04-24T14:45:54;2.10;;;0.98;;
61590;SDS011;57639;52.410;-1.966;2023-04-24T14:49:20;3.90;;;1.10;;
61590;SDS011;57639;52.410;-1.966;2023-04-24T14:52:43;3.55;;;1.23;;
61590;SDS011;57639;52.410;-1.966;2023-04-24T14:56:06;1.27;;;1.00;;
61590;SDS011;57639;52.410;-1.966;2023-04-24T14:59:25;4.20;;;1.45;;
61590;SDS011;57639;52.410;-1.966;2023-04-24T15:02:48;3.10;;;1.20;;
61590;SDS011;57639;52.410;-1.966;2023-04-24T15:06:13;2.72;;;1.10;;
61590;SDS011;57639;52.410;-1.966;2023-04-24T15:09:36;2.08;;;1.00;;
61590;SDS011;57639;52.410;-1.966;2023-04-24T15:12:59;2.35;;;1.20;;
61590;SDS011;57639;52.410;-1.966;2023-04-24T15:16:23;2.65;;;1.10;;
61590;SDS011;57639;52.410;-1.966;2023-04-24T15:19:45;1.83;;;1.27;;
61590;SDS011;57639;52.410;-1.966;2023-04-24T15:23:11;2.03;;;1.10;;
61590;SDS011;57639;52.410;-1.966;2023-04-24T15:26:33;4.35;;;1.25;;
61590;SDS011;57639;52.410;-1.966;2023-04-24T15:29:56;4.68;;;1.33;;
61590;SDS011;57639;52.410;-1.966;2023-04-24T15:33:19;3.33;;;1.20;;
61590;SDS011;57639;52.410;-1.966;2023-04-24T15:36:42;3.17;;;1.13;;
61590;SDS011;57639;52.410;-1.966;2023-04-24T15:40:08;2.15;;;1.10;;
61590;SDS011;57639;52.410;-1.966;2023-04-24T15:43:34;1.97;;;1.20;;
61590;SDS011;57639;52.410;-1.966;2023-04-24T15:46:59;3.30;;;1.30;;
61590;SDS011;57639;52.410;-1.966;2023-04-24T15:50:22;3.10;;;1.30;;
61590;SDS011;57639;52.410;-1.966;2023-04-24T15:53:44;5.72;;;1.65;;
61590;SDS011;57639;52.410;-1.966;2023-04-24T15:57:10;6.38;;;1.48;;
61590;SDS011;57639;52.410;-1.966;2023-04-24T16:00:33;5.35;;;1.73;;
61590;SDS011;57639;52.410;-1.966;2023-04-24T16:03:52;6.97;;;1.50;;
61590;SDS011;57639;52.410;-1.966;2023-04-24T16:06:59;5.53;;;1.45;;
61590;SDS011;57639;52.410;-1.966;2023-04-24T16:20:03;8.77;;;2.03;;
61590;SDS011;57639;52.410;-1.966;2023-04-24T16:23:10;3.92;;;1.58;;
61590;SDS011;57639;52.410;-1.966;2023-04-24T16:26:17;4.03;;;1.60;;
61590;SDS011;57639;52.410;-1.966;2023-04-24T16:29:23;4.95;;;1.42;;
61590;SDS011;57639;52.410;-1.966;2023-04-24T16:32:29;8.15;;;1.63;;
61590;SDS011;57639;52.410;-1.966;2023-04-24T16:35:38;3.33;;;1.50;;
61590;SDS011;57639;52.410;-1.966;2023-04-24T16:38:45;5.47;;;1.83;;
61590;SDS011;57639;52.410;-1.966;2023-04-24T16:41:52;4.70;;;1.65;;
61590;SDS011;57639;52.410;-1.966;2023-04-24T16:44:59;4.93;;;1.50;;
61590;SDS011;57639;52.410;-1.966;2023-04-24T16:48:05;5.22;;;1.90;;
61590;SDS011;57639;52.410;-1.966;2023-04-24T16:51:15;4.90;;;1.70;;
61590;SDS011;57639;52.410;-1.966;2023-04-24T16:54:22;5.18;;;1.75;;
61590;SDS011;57639;52.410;-1.966;2023-04-24T16:57:29;6.05;;;1.92;;
61590;SDS011;57639;52.410;-1.966;2023-04-24T17:00:35;4.50;;;2.13;;
61590;SDS011;57639;52.410;-1.966;2023-04-24T17:03:41;4.07;;;1.85;;
61590;SDS011;57639;52.410;-1.966;2023-04-24T17:06:51;4.97;;;1.90;;
61590;SDS011;57639;52.410;-1.966;2023-04-24T17:09:58;4.57;;;2.25;;
61590;SDS011;57639;52.410;-1.966;2023-04-24T17:13:04;3.88;;;2.20;;
61590;SDS011;57639;52.410;-1.966;2023-04-24T17:16:11;5.85;;;2.20;;
61590;SDS011;57639;52.410;-1.966;2023-04-24T17:19:17;5.88;;;1.90;;
61590;SDS011;57639;52.410;-1.966;2023-04-24T17:22:26;5.07;;;1.80;;
61590;SDS011;57639;52.410;-1.966;2023-04-24T17:25:33;4.03;;;2.00;;
61590;SDS011;57639;52.410;-1.966;2023-04-24T17:28:39;4.03;;;1.92;;
61590;SDS011;57639;52.410;-1.966;2023-04-24T17:31:45;5.05;;;1.83;;
61590;SDS011;57639;52.410;-1.966;2023-04-24T17:34:52;6.13;;;1.98;;
61590;SDS011;57639;52.410;-1.966;2023-04-24T17:38:01;3.63;;;1.77;;
61590;SDS011;57639;52.410;-1.966;2023-04-24T17:41:07;5.80;;;1.60;;
61590;SDS011;57639;52.410;-1.966;2023-04-24T17:44:16;6.00;;;1.63;;
61590;SDS011;57639;52.410;-1.966;2023-04-24T17:47:22;7.03;;;1.90;;
61590;SDS011;57639;52.410;-1.966;2023-04-24T17:50:30;6.75;;;1.90;;
61590;SDS011;57639;52.410;-1.966;2023-04-24T17:53:40;4.85;;;1.65;;
61590;SDS011;57639;52.410;-1.966;2023-04-24T17:56:46;2.13;;;1.47;;
61590;SDS011;57639;52.410;-1.966;2023-04-24T17:59:54;2.90;;;1.50;;
61590;SDS011;57639;52.410;-1.966;2023-04-24T18:03:01;2.97;;;1.58;;
61590;SDS011;57639;52.410;-1.966;2023-04-24T18:06:07;3.90;;;1.60;;
61590;SDS011;57639;52.410;-1.966;2023-04-24T18:09:21;4.72;;;1.40;;
61590;SDS011;57639;52.410;-1.966;2023-04-24T18:12:28;3.97;;;1.50;;
61590;SDS011;57639;52.410;-1.966;2023-04-24T18:15:34;4.22;;;1.67;;
61590;SDS011;57639;52.410;-1.966;2023-04-24T18:18:43;2.97;;;1.43;;
61590;SDS011;57639;52.410;-1.966;2023-04-24T18:21:50;3.78;;;1.48;;
61590;SDS011;57639;52.410;-1.966;2023-04-24T18:24:59;4.72;;;1.45;;
61590;SDS011;57639;52.410;-1.966;2023-04-24T18:28:05;3.90;;;1.60;;
61590;SDS011;57639;52.410;-1.966;2023-04-24T18:31:11;4.60;;;1.55;;
61590;SDS011;57639;52.410;-1.966;2023-04-24T18:34:18;3.85;;;1.70;;
61590;SDS011;57639;52.410;-1.966;2023-04-24T18:37:24;3.15;;;1.52;;
61590;SDS011;57639;52.410;-1.966;2023-04-24T18:40:34;3.03;;;1.40;;
61590;SDS011;57639;52.410;-1.966;2023-04-24T18:43:41;5.20;;;1.88;;
61590;SDS011;57639;52.410;-1.966;2023-04-24T18:46:47;2.95;;;1.55;;
61590;SDS011;57639;52.410;-1.966;2023-04-24T18:49:53;4.03;;;1.60;;
61590;SDS011;57639;52.410;-1.966;2023-04-24T18:53:00;3.67;;;1.48;;
61590;SDS011;57639;52.410;-1.966;2023-04-24T18:56:09;3.08;;;1.40;;
61590;SDS011;57639;52.410;-1.966;2023-04-24T18:59:15;4.20;;;1.70;;
61590;SDS011;57639;52.410;-1.966;2023-04-24T19:02:21;2.45;;;1.42;;
61590;SDS011;57639;52.410;-1.966;2023-04-24T19:05:28;4.25;;;1.50;;
61590;SDS011;57639;52.410;-1.966;2023-04-24T19:08:34;2.85;;;1.25;;
61590;SDS011;57639;52.410;-1.966;2023-04-24T19:11:46;2.03;;;1.15;;
61590;SDS011;57639;52.410;-1.966;2023-04-24T19:14:53;3.85;;;1.38;;
61590;SDS011;57639;52.410;-1.966;2023-04-24T19:18:00;3.10;;;1.40;;
61590;SDS011;57639;52.410;-1.966;2023-04-24T19:21:06;4.03;;;1.40;;
61590;SDS011;57639;52.410;-1.966;2023-04-24T19:24:13;3.38;;;1.30;;
61590;SDS011;57639;52.410;-1.966;2023-04-24T19:27:23;4.25;;;1.48;;
61590;SDS011;57639;52.410;-1.966;2023-04-24T19:30:29;4.47;;;1.60;;
61590;SDS011;57639;52.410;-1.966;2023-04-24T19:33:36;2.78;;;1.30;;
61590;SDS011;57639;52.410;-1.966;2023-04-24T19:36:43;2.58;;;1.25;;
61590;SDS011;57639;52.410;-1.966;2023-04-24T19:39:49;3.53;;;1.60;;
61590;SDS011;57639;52.410;-1.966;2023-04-24T19:42:58;3.38;;;1.50;;
61590;SDS011;57639;52.410;-1.966;2023-04-24T19:46:04;3.22;;;1.40;;
61590;SDS011;57639;52.410;-1.966;2023-04-24T19:49:11;3.78;;;1.40;;
61590;SDS011;57639;52.410;-1.966;2023-04-24T19:52:18;3.67;;;1.50;;
61590;SDS011;57639;52.410;-1.966;2023-04-24T19:55:24;2.67;;;1.38;;
61590;SDS011;57639;52.410;-1.966;2023-04-24T19:58:36;3.93;;;1.53;;
61590;SDS011;57639;52.410;-1.966;2023-04-24T20:01:43;5.32;;;1.58;;
61590;SDS011;57639;52.410;-1.966;2023-04-24T20:04:50;4.22;;;1.50;;
61590;SDS011;57639;52.410;-1.966;2023-04-24T20:07:56;3.22;;;1.40;;
61590;SDS011;57639;52.410;-1.966;2023-04-24T20:11:02;3.72;;;1.55;;
61590;SDS011;57639;52.410;-1.966;2023-04-24T20:14:12;4.00;;;1.60;;
61590;SDS011;57639;52.410;-1.966;2023-04-24T20:17:18;3.08;;;1.70;;
61590;SDS011;57639;52.410;-1.966;2023-04-24T20:20:24;2.55;;;1.48;;